Amenia, North Dakota
Current Conditions -  °F | °C
As of 2:53 PM on Sunday 23 Nov 2014 (Local Time) from KFAR Reporting Station
Overcast Overcast  
Wind Chill: 28°   Ceiling: 3300
Heat Index: 36°   Visibility: 10mi
Dew Point: 22°   Wind: 12mph
Humidity: 57%   Direction: 290°WNW
Pressure: 29.46"   Gusts: NA
Location:  47°N, 97.22°W
Report Text: KFAR 232053Z 29010KT 10SM OVC033 02/M06 A2946 RMK AO2 SLP986 60000 T00221056 52006
Loading
Personal Weather Stations






























Interactive Weather Map New forecast layout! Learn more

10-Day Weather Forecast

Advertisements
Track Severe Weather on mobile